Time;durP1;ratioP1;P1;durP2;ratioP2;P2;SDS_P1;SDS_P2;PMS_P1;PMS_P2;Temp;Humidity;BMP_temperature;BMP_pressure;BME280_temperature;BME280_humidity;BME280_pressure;Samples;Min_cycle;Max_cycle;Signal;HPM_P1;HPM_P2
2022/03/23 00:00:49;;;;;;;51.10;36.20;;;9.60;99.90;;;;;;6183275;23;20020;-79
2022/03/23 00:03:15;;;;;;;48.05;36.22;;;9.70;99.90;;;;;;6184554;23;20025;-79
2022/03/23 00:05:41;;;;;;;46.88;35.22;;;9.70;99.90;;;;;;6183449;23;20135;-79
2022/03/23 00:08:10;;;;;;;47.97;35.75;;;9.80;99.90;;;;;;6209739;23;20020;-79
2022/03/23 00:10:36;;;;;;;45.10;35.38;;;9.80;99.90;;;;;;6210670;23;20020;-79
2022/03/23 00:13:03;;;;;;;49.00;36.50;;;9.80;99.90;;;;;;6183224;23;20528;-79
2022/03/23 00:15:29;;;;;;;47.58;36.35;;;9.80;99.90;;;;;;6210526;23;20017;-79
2022/03/23 00:17:55;;;;;;;48.40;35.30;;;9.80;99.90;;;;;;6182705;23;20090;-79
2022/03/23 00:20:26;;;;;;;47.72;36.80;;;9.80;99.90;;;;;;6211646;23;20021;-79
2022/03/23 00:22:52;;;;;;;49.75;35.88;;;9.80;99.90;;;;;;6183659;23;20025;-79
2022/03/23 00:25:18;;;;;;;45.90;35.92;;;9.80;99.90;;;;;;6209149;23;20016;-79
2022/03/23 00:27:43;;;;;;;50.45;36.67;;;9.80;99.90;;;;;;6210525;23;20024;-79
2022/03/23 00:30:10;;;;;;;47.58;36.85;;;9.80;99.90;;;;;;6211886;23;20071;-79
2022/03/23 00:32:36;;;;;;;46.70;35.63;;;9.70;99.90;;;;;;6183571;23;20516;-79
2022/03/23 00:35:02;;;;;;;47.47;35.78;;;9.70;99.90;;;;;;6210245;23;20047;-79
2022/03/23 00:37:28;;;;;;;47.45;34.90;;;9.60;99.90;;;;;;6210476;23;20059;-79
2022/03/23 00:39:54;;;;;;;45.13;34.63;;;9.60;99.90;;;;;;6209547;23;20016;-79
2022/03/23 00:42:20;;;;;;;45.28;34.78;;;9.50;99.90;;;;;;6211021;23;20020;-79
2022/03/23 00:44:46;;;;;;;46.22;35.00;;;9.40;99.90;;;;;;6211342;23;20013;-78
2022/03/23 00:47:12;;;;;;;44.72;36.53;;;9.30;99.90;;;;;;6208444;23;20017;-79
2022/03/23 00:49:38;;;;;;;48.88;36.33;;;9.20;99.90;;;;;;6211741;23;20021;-79
2022/03/23 00:52:07;;;;;;;46.97;35.75;;;9.10;99.90;;;;;;6209459;23;20074;-79
2022/03/23 00:54:34;;;;;;;46.05;35.00;;;9.10;99.90;;;;;;6211064;23;20044;-79
2022/03/23 00:57:01;;;;;;;46.72;35.55;;;9.00;99.90;;;;;;6209692;23;20019;-78
2022/03/23 00:59:27;;;;;;;45.85;35.75;;;9.00;99.90;;;;;;6212220;23;20016;-79
2022/03/23 01:01:53;;;;;;;51.42;35.83;;;8.90;99.90;;;;;;6209397;23;20020;-79
2022/03/23 01:04:19;;;;;;;47.58;35.75;;;8.80;99.90;;;;;;6212249;23;20070;-79
2022/03/23 01:06:44;;;;;;;47.47;33.88;;;8.80;99.90;;;;;;6210060;23;20562;-79
2022/03/23 01:09:10;;;;;;;52.92;37.42;;;8.80;99.90;;;;;;6209544;23;20012;-78
2022/03/23 01:11:37;;;;;;;50.78;37.40;;;8.60;99.90;;;;;;6184517;23;20048;-79
2022/03/23 01:14:04;;;;;;;45.93;35.57;;;8.60;99.90;;;;;;6183169;23;20342;-78
2022/03/23 01:16:30;;;;;;;44.22;35.65;;;8.60;99.90;;;;;;6210216;23;20507;-78
2022/03/23 01:18:56;;;;;;;46.28;35.65;;;8.50;99.90;;;;;;6208846;23;20063;-79
2022/03/23 01:21:22;;;;;;;42.65;34.30;;;8.60;99.90;;;;;;6210856;23;20012;-79
2022/03/23 01:23:48;;;;;;;43.78;35.67;;;8.50;99.90;;;;;;6210880;23;20020;-79
2022/03/23 01:26:13;;;;;;;48.97;35.03;;;8.40;99.90;;;;;;6210529;23;20021;-79
2022/03/23 01:28:39;;;;;;;45.58;34.33;;;8.30;99.90;;;;;;6210908;23;20012;-79
2022/03/23 01:31:05;;;;;;;51.30;37.47;;;8.30;99.90;;;;;;6210987;23;20021;-79
2022/03/23 01:33:32;;;;;;;47.15;35.67;;;8.30;99.90;;;;;;6211438;23;20035;-79
2022/03/23 01:35:58;;;;;;;41.67;33.40;;;8.30;99.90;;;;;;6209830;23;20004;-78
2022/03/23 01:38:23;;;;;;;45.00;33.92;;;8.20;99.90;;;;;;6215594;23;20059;-80
2022/03/23 01:40:50;;;;;;;45.88;34.00;;;8.20;99.90;;;;;;6188046;23;20024;-79
2022/03/23 01:43:15;;;;;;;44.92;35.95;;;8.10;99.90;;;;;;6210730;23;20029;-80
2022/03/23 01:45:41;;;;;;;51.47;36.20;;;8.10;99.90;;;;;;6183500;23;20087;-79
2022/03/23 01:48:06;;;;;;;46.80;34.63;;;8.10;99.90;;;;;;6211006;23;20352;-80
2022/03/23 01:50:32;;;;;;;46.58;36.05;;;8.00;99.90;;;;;;6209161;23;20021;-78
2022/03/23 01:52:58;;;;;;;42.28;33.65;;;8.00;99.90;;;;;;6211682;23;20016;-79
2022/03/23 01:55:24;;;;;;;49.25;34.55;;;7.90;99.90;;;;;;6212197;23;20012;-79
2022/03/23 01:57:54;;;;;;;41.63;31.20;;;7.90;99.90;;;;;;6210103;23;20023;-79
2022/03/23 02:00:20;;;;;;;48.03;35.22;;;7.90;99.90;;;;;;6212759;23;20351;-79
2022/03/23 02:02:46;;;;;;;44.85;34.85;;;7.90;99.90;;;;;;6215377;23;20044;-79
2022/03/23 02:05:14;;;;;;;49.60;36.63;;;7.90;99.90;;;;;;6217307;23;20021;-80
2022/03/23 02:07:40;;;;;;;;;;;7.90;99.90;;;;;;6193527;23;20017;-80
2022/03/23 02:10:06;;;;;;;50.00;36.22;;;7.80;99.90;;;;;;6218535;23;20023;-80
2022/03/23 02:12:33;;;;;;;50.30;36.70;;;7.70;99.90;;;;;;6219013;23;20387;-80
2022/03/23 02:15:00;;;;;;;48.92;37.25;;;7.80;99.90;;;;;;6191983;23;20047;-79
2022/03/23 02:17:26;;;;;;;48.15;37.25;;;7.80;99.90;;;;;;6192528;23;20029;-80
2022/03/23 02:19:52;;;;;;;44.22;35.15;;;7.70;99.90;;;;;;6191456;23;20017;-78
2022/03/23 02:22:18;;;;;;;52.58;37.08;;;7.70;99.90;;;;;;6219094;23;20332;-80
2022/03/23 02:24:48;;;;;;;49.15;37.60;;;7.70;99.90;;;;;;6193221;23;20017;-78
2022/03/23 02:27:14;;;;;;;45.72;36.03;;;7.70;99.90;;;;;;6219866;23;20035;-81
2022/03/23 02:29:40;;;;;;;46.53;36.30;;;7.70;99.90;;;;;;6219002;23;20024;-78
2022/03/23 02:32:06;;;;;;;46.58;35.75;;;7.60;99.90;;;;;;6191700;23;20025;-79
2022/03/23 02:34:34;;;;;;;48.22;36.58;;;7.70;99.90;;;;;;6218238;23;20020;-79
2022/03/23 02:37:00;;;;;;;46.53;36.47;;;7.60;99.90;;;;;;6217877;23;20647;-78
2022/03/23 02:39:25;;;;;;;50.50;37.00;;;7.60;99.90;;;;;;6193320;23;20124;-79
2022/03/23 02:41:53;;;;;;;47.35;35.83;;;7.60;99.90;;;;;;6223228;23;20012;-79
2022/03/23 02:44:20;;;;;;;50.58;37.10;;;7.70;99.90;;;;;;6196503;23;20426;-78
2022/03/23 02:46:46;;;;;;;50.20;35.88;;;7.60;99.90;;;;;;6221572;23;20016;-78
2022/03/23 02:49:12;;;;;;;47.97;36.15;;;7.60;99.90;;;;;;6193847;23;20043;-78
2022/03/23 02:51:38;;;;;;;45.22;36.45;;;7.60;99.90;;;;;;6222544;23;20079;-77
2022/03/23 03:02:44;;;;;;;54.60;37.15;;;7.40;99.90;;;;;;6222014;23;20025;-79
2022/03/23 03:05:11;;;;;;;49.47;36.53;;;7.50;99.90;;;;;;6221726;23;20023;-79
2022/03/23 03:10:23;;;;;;;46.35;35.70;;;7.50;99.90;;;;;;6192368;23;20024;-79
2022/03/23 03:12:50;;;;;;;48.47;35.08;;;7.60;99.90;;;;;;6218209;23;20479;-79
2022/03/23 03:15:19;;;;;;;48.53;35.85;;;7.60;99.90;;;;;;6215375;23;20025;-79
2022/03/23 03:17:46;;;;;;;48.83;36.47;;;7.60;99.90;;;;;;6217236;23;20096;-79
2022/03/23 03:20:14;;;;;;;48.22;36.47;;;7.60;99.90;;;;;;6218918;23;20058;-79
2022/03/23 03:22:40;;;;;;;53.88;38.47;;;7.60;99.90;;;;;;6215388;23;20020;-79
2022/03/23 03:25:17;;;;;;;50.78;37.22;;;7.60;99.90;;;;;;6214584;23;20088;-79
2022/03/23 03:27:44;;;;;;;51.55;37.92;;;7.70;99.90;;;;;;6214276;23;20013;-79
2022/03/23 03:30:12;;;;;;;48.85;37.40;;;7.70;99.90;;;;;;6219565;23;20024;-80
2022/03/23 03:32:38;;;;;;;48.53;35.35;;;7.70;99.90;;;;;;6222114;23;20044;-79
2022/03/23 03:35:05;;;;;;;47.35;36.80;;;7.70;99.90;;;;;;6189444;23;20066;-79
2022/03/23 03:37:31;;;;;;;50.95;38.67;;;7.60;99.90;;;;;;6214254;23;20091;-79
2022/03/23 03:39:56;;;;;;;49.47;38.13;;;7.60;99.90;;;;;;6211128;23;20039;-79
2022/03/23 03:42:22;;;;;;;47.50;37.58;;;7.60;99.90;;;;;;6211432;23;20071;-79
2022/03/23 03:44:50;;;;;;;46.28;37.00;;;7.50;99.90;;;;;;6211429;23;20016;-79
2022/03/23 03:47:18;;;;;;;49.92;36.30;;;7.50;99.90;;;;;;6184296;23;20020;-79
2022/03/23 03:49:43;;;;;;;48.58;37.72;;;7.50;99.90;;;;;;6183568;23;20313;-79
2022/03/23 03:52:09;;;;;;;49.83;37.25;;;7.50;99.90;;;;;;6211946;23;20020;-79
2022/03/23 03:54:35;;;;;;;44.72;37.15;;;7.50;99.90;;;;;;6211794;23;20017;-79
2022/03/23 03:57:00;;;;;;;49.63;36.25;;;7.40;99.90;;;;;;6209017;23;20024;-79
2022/03/23 03:59:26;;;;;;;48.70;37.00;;;7.40;99.90;;;;;;6184691;23;20059;-79
2022/03/23 04:01:52;;;;;;;50.00;36.03;;;7.40;99.90;;;;;;6184603;23;20020;-79
2022/03/23 04:04:17;;;;;;;49.35;35.88;;;7.40;99.90;;;;;;6210490;23;20115;-79
2022/03/23 04:06:43;;;;;;;45.55;36.67;;;7.40;99.90;;;;;;6212124;23;20012;-81
2022/03/23 04:09:09;;;;;;;45.28;37.13;;;7.40;99.90;;;;;;6211925;23;20021;-80
2022/03/23 04:11:35;;;;;;;52.15;37.35;;;7.30;99.90;;;;;;6211028;23;20092;-81
2022/03/23 04:14:01;;;;;;;48.38;37.38;;;7.20;99.90;;;;;;6210952;23;20016;-79
2022/03/23 04:16:27;;;;;;;49.88;36.13;;;7.20;99.90;;;;;;6211432;23;20023;-79
2022/03/23 04:18:52;;;;;;;54.22;36.63;;;7.10;99.90;;;;;;6209975;23;20020;-78
2022/03/23 04:21:27;;;;;;;46.38;36.03;;;7.10;99.90;;;;;;6210825;23;20083;-79
2022/03/23 04:23:53;;;;;;;45.08;36.03;;;7.00;99.90;;;;;;6209695;23;20031;-79
2022/03/23 04:26:18;;;;;;;47.40;37.17;;;7.00;99.90;;;;;;6211573;23;20056;-79
2022/03/23 04:28:44;;;;;;;44.08;36.20;;;7.00;99.90;;;;;;6210690;23;20016;-80
2022/03/23 04:31:10;;;;;;;49.85;37.58;;;7.00;99.90;;;;;;6183018;23;20017;-80
2022/03/23 04:33:35;;;;;;;49.33;36.65;;;7.00;99.90;;;;;;6184445;23;20027;-80
2022/03/23 04:36:03;;;;;;;50.80;37.80;;;7.00;99.90;;;;;;6210317;23;20021;-80
2022/03/23 04:38:29;;;;;;;49.40;38.58;;;7.00;99.90;;;;;;6210438;23;20012;-80
2022/03/23 04:40:55;;;;;;;47.05;38.00;;;7.00;99.90;;;;;;6210095;23;20082;-80
2022/03/23 04:43:21;;;;;;;49.15;37.63;;;7.00;99.90;;;;;;6211480;23;20048;-80
2022/03/23 04:45:47;;;;;;;46.05;36.90;;;6.90;99.90;;;;;;6183034;23;20027;-80
2022/03/23 04:48:12;;;;;;;53.30;36.97;;;6.90;99.90;;;;;;6210371;23;20075;-79
2022/03/23 04:50:38;;;;;;;48.05;37.45;;;6.90;99.90;;;;;;6209918;23;20039;-79
2022/03/23 04:53:04;;;;;;;51.17;37.03;;;6.90;99.90;;;;;;6209845;23;20024;-80
2022/03/23 04:55:29;;;;;;;47.90;36.95;;;6.90;99.90;;;;;;6211056;23;20359;-78
2022/03/23 04:57:56;;;;;;;48.15;38.08;;;7.00;99.90;;;;;;6209144;23;20017;-78
2022/03/23 05:00:22;;;;;;;45.63;35.35;;;6.90;99.90;;;;;;6209232;23;20095;-79
2022/03/23 05:02:49;;;;;;;48.72;36.85;;;6.90;99.90;;;;;;6210082;23;20091;-79
2022/03/23 05:05:18;;;;;;;48.90;36.42;;;6.90;99.90;;;;;;6210855;23;20019;-79
2022/03/23 05:07:45;;;;;;;48.05;36.63;;;6.90;99.90;;;;;;6207907;23;20460;-80
2022/03/23 05:10:12;;;;;;;44.88;36.05;;;6.90;99.90;;;;;;6211320;23;20036;-80
2022/03/23 05:12:40;;;;;;;46.00;36.70;;;6.90;99.90;;;;;;6211463;23;20333;-80
2022/03/23 05:15:08;;;;;;;45.92;36.88;;;6.90;99.90;;;;;;6209922;23;20016;-80
2022/03/23 05:17:35;;;;;;;47.13;36.13;;;6.90;99.90;;;;;;6210482;23;20016;-80
2022/03/23 05:20:01;;;;;;;49.58;36.05;;;6.90;99.90;;;;;;6212754;23;20068;-79
2022/03/23 05:22:27;;;;;;;45.75;35.42;;;6.80;99.90;;;;;;6187431;23;20407;-79
2022/03/23 05:24:53;;;;;;;45.10;35.83;;;6.80;99.90;;;;;;6210122;23;20052;-79
2022/03/23 05:27:19;;;;;;;47.13;36.40;;;6.80;99.90;;;;;;6209719;23;20027;-79
2022/03/23 05:29:45;;;;;;;50.17;37.10;;;6.80;99.90;;;;;;6183951;23;20020;-79
2022/03/23 05:32:16;;;;;;;43.47;36.40;;;6.80;99.90;;;;;;6210399;23;20016;-79
2022/03/23 05:34:43;;;;;;;50.28;38.50;;;6.90;99.90;;;;;;6210134;23;20012;-79
2022/03/23 05:37:09;;;;;;;45.38;35.83;;;6.90;99.90;;;;;;6209708;23;20456;-78
2022/03/23 05:39:34;;;;;;;46.15;36.90;;;6.90;99.90;;;;;;6184107;23;20036;-79
2022/03/23 05:42:00;;;;;;;46.85;37.78;;;6.90;99.90;;;;;;6209066;23;20386;-79
2022/03/23 05:44:26;;;;;;;45.35;36.13;;;6.90;99.90;;;;;;6210079;23;20429;-79
2022/03/23 05:46:52;;;;;;;50.25;38.17;;;6.90;99.90;;;;;;6209809;23;20021;-79
2022/03/23 05:49:17;;;;;;;50.05;38.55;;;7.00;99.90;;;;;;6210254;23;20047;-79
2022/03/23 05:51:43;;;;;;;48.38;37.63;;;7.00;99.90;;;;;;6208178;23;20353;-79
2022/03/23 05:54:09;;;;;;;53.47;39.00;;;7.00;99.90;;;;;;6210448;23;20012;-79
2022/03/23 05:56:34;;;;;;;56.33;38.97;;;6.90;99.90;;;;;;6209606;23;20332;-79
2022/03/23 05:59:01;;;;;;;48.80;37.90;;;7.00;99.90;;;;;;6183412;23;20017;-79
2022/03/23 06:01:27;;;;;;;48.90;38.00;;;7.00;99.90;;;;;;6209011;23;20116;-79
2022/03/23 06:03:53;;;;;;;51.15;36.50;;;7.00;99.90;;;;;;6208668;23;20044;-79
2022/03/23 06:06:18;;;;;;;46.80;38.10;;;7.10;99.90;;;;;;6209787;23;20013;-79
2022/03/23 06:08:44;;;;;;;50.88;36.88;;;7.10;99.90;;;;;;6183348;23;20012;-79
2022/03/23 06:11:10;;;;;;;48.38;38.00;;;7.10;99.90;;;;;;6210393;23;20013;-78
2022/03/23 06:13:35;;;;;;;47.17;37.33;;;7.20;99.90;;;;;;6185534;23;20020;-77
2022/03/23 06:16:01;;;;;;;47.60;36.92;;;7.20;99.90;;;;;;6211244;23;20959;-78
2022/03/23 06:18:26;;;;;;;46.40;35.95;;;7.30;99.90;;;;;;6211191;23;20043;-78
2022/03/23 06:20:52;;;;;;;47.67;36.08;;;7.30;99.90;;;;;;6212066;23;20008;-78
2022/03/23 06:23:18;;;;;;;46.33;37.15;;;7.40;99.90;;;;;;6212514;23;20328;-78
2022/03/23 06:25:46;;;;;;;45.95;35.63;;;7.50;99.90;;;;;;6210814;23;20042;-79
2022/03/23 06:28:12;;;;;;;44.03;36.22;;;7.50;99.90;;;;;;6212090;23;20116;-79
2022/03/23 06:30:38;;;;;;;45.22;36.58;;;7.60;99.90;;;;;;6210916;23;20340;-78
2022/03/23 06:33:03;;;;;;;46.25;35.13;;;7.70;99.90;;;;;;6210859;23;20083;-78
2022/03/23 06:35:29;;;;;;;45.45;35.65;;;7.70;99.90;;;;;;6185979;23;20056;-78
2022/03/23 06:37:55;;;;;;;43.33;35.75;;;7.70;99.90;;;;;;6180932;23;20091;-79
2022/03/23 06:40:21;;;;;;;44.13;35.08;;;7.80;99.90;;;;;;6212958;23;20071;-79
2022/03/23 06:42:47;;;;;;;48.78;36.85;;;7.80;99.90;;;;;;6184020;23;20099;-78
2022/03/23 06:45:13;;;;;;;46.67;36.63;;;7.90;99.90;;;;;;6210310;23;20013;-78
2022/03/23 06:47:39;;;;;;;42.55;34.80;;;8.00;99.90;;;;;;6211627;23;20095;-79
2022/03/23 06:50:07;;;;;;;43.53;35.33;;;8.00;99.90;;;;;;6183950;23;20024;-78
2022/03/23 06:52:33;;;;;;;45.78;34.85;;;8.10;99.90;;;;;;6184080;23;20367;-79
2022/03/23 06:54:59;;;;;;;46.28;34.72;;;8.10;99.90;;;;;;6210709;23;20017;-84
2022/03/23 06:57:25;;;;;;;42.00;33.50;;;8.20;99.90;;;;;;6210293;23;20013;-81
2022/03/23 06:59:51;;;;;;;44.78;34.85;;;8.30;99.90;;;;;;6207067;23;20031;-81
2022/03/23 07:02:16;;;;;;;41.63;34.10;;;8.40;99.90;;;;;;6210229;23;20024;-82
2022/03/23 07:04:42;;;;;;;41.50;33.17;;;8.40;99.90;;;;;;6211049;23;20020;-82
2022/03/23 07:07:08;;;;;;;37.92;31.80;;;8.50;98.70;;;;;;6183929;23;20024;-82
2022/03/23 07:09:39;;;;;;;43.70;34.05;;;8.50;98.30;;;;;;6212254;23;20023;-82
2022/03/23 07:12:09;;;;;;;41.58;33.08;;;8.60;98.60;;;;;;6191671;23;20026;-79
2022/03/23 07:14:37;;;;;;;42.85;32.90;;;8.70;98.50;;;;;;6213575;23;20059;-80
2022/03/23 07:17:04;;;;;;;41.30;33.60;;;8.70;98.10;;;;;;6212508;23;20467;-78
2022/03/23 07:19:30;;;;;;;39.85;31.35;;;8.80;97.00;;;;;;6184644;23;20344;-78
2022/03/23 07:21:56;;;;;;;40.08;32.17;;;8.90;97.80;;;;;;6210372;23;20013;-78
2022/03/23 07:24:22;;;;;;;38.35;32.72;;;9.00;95.60;;;;;;6184857;23;20453;-79
2022/03/23 07:26:51;;;;;;;38.83;30.20;;;9.00;93.30;;;;;;6183187;23;20028;-79
2022/03/23 07:29:17;;;;;;;36.85;30.17;;;9.00;92.70;;;;;;6212365;23;20013;-79
2022/03/23 07:31:45;;;;;;;37.80;31.35;;;9.10;92.60;;;;;;6182792;23;20021;-80
2022/03/23 07:34:11;;;;;;;42.90;32.08;;;9.10;92.10;;;;;;6210409;23;20019;-80
2022/03/23 07:36:38;;;;;;;38.75;30.48;;;9.20;91.60;;;;;;6210520;23;20087;-79
2022/03/23 07:39:04;;;;;;;47.33;30.95;;;9.30;91.20;;;;;;6211144;23;20025;-78
2022/03/23 07:41:29;;;;;;;37.92;31.38;;;9.30;90.10;;;;;;6210243;23;20019;-79
2022/03/23 07:43:55;;;;;;;35.15;29.52;;;9.50;89.40;;;;;;6184139;23;20028;-79
2022/03/23 07:46:20;;;;;;;36.42;30.85;;;9.60;87.90;;;;;;6182967;23;20512;-79
2022/03/23 07:48:47;;;;;;;35.17;30.23;;;9.60;88.90;;;;;;6210569;23;20021;-79
2022/03/23 07:51:12;;;;;;;36.20;30.27;;;9.70;87.80;;;;;;6211882;23;20029;-79
2022/03/23 07:53:38;;;;;;;37.50;29.60;;;9.80;85.30;;;;;;6209969;23;20429;-78
2022/03/23 07:56:04;;;;;;;34.80;29.98;;;9.80;86.20;;;;;;6208170;23;20012;-79
2022/03/23 07:58:30;;;;;;;38.33;29.63;;;10.00;87.30;;;;;;6211977;23;20429;-79
2022/03/23 08:00:56;;;;;;;39.28;30.20;;;10.00;86.40;;;;;;6209850;23;20028;-79
2022/03/23 08:03:22;;;;;;;35.08;29.73;;;10.10;86.60;;;;;;6209969;23;20063;-79
2022/03/23 08:05:48;;;;;;;36.40;30.55;;;10.20;85.10;;;;;;6183644;23;20104;-79
2022/03/23 08:08:14;;;;;;;37.78;29.55;;;10.30;84.20;;;;;;6210339;23;20106;-79
2022/03/23 08:10:42;;;;;;;33.95;29.05;;;10.40;81.50;;;;;;6209843;23;20024;-78
2022/03/23 08:13:09;;;;;;;36.28;29.67;;;10.50;80.00;;;;;;6211480;23;20016;-80
2022/03/23 08:15:39;;;;;;;35.28;29.25;;;10.50;81.40;;;;;;6182290;23;20012;-79
2022/03/23 08:18:08;;;;;;;36.53;28.17;;;10.60;80.40;;;;;;6209790;23;20017;-79
2022/03/23 08:20:35;;;;;;;32.28;27.02;;;10.70;79.20;;;;;;6211756;23;20017;-85
2022/03/23 08:23:06;;;;;;;34.75;28.27;;;10.80;76.20;;;;;;6210535;23;20352;-85
2022/03/23 08:25:41;;;;;;;32.05;27.23;;;10.90;75.30;;;;;;6211017;23;20325;-85
2022/03/23 08:28:08;;;;;;;34.63;26.83;;;11.00;75.80;;;;;;6211395;23;20012;-84
2022/03/23 08:30:34;;;;;;;31.98;26.92;;;11.10;75.30;;;;;;6184755;23;20016;-85
2022/03/23 08:33:03;;;;;;;36.70;27.40;;;11.20;73.20;;;;;;6210813;23;20027;-86
2022/03/23 08:35:33;;;;;;;31.55;26.00;;;11.30;71.80;;;;;;6211525;23;20019;-85
2022/03/23 08:37:58;;;;;;;33.35;26.15;;;11.40;70.50;;;;;;6183396;23;20056;-83
2022/03/23 08:40:24;;;;;;;31.95;25.85;;;11.50;69.60;;;;;;6212072;23;20016;-82
2022/03/23 08:42:50;;;;;;;30.05;25.75;;;11.60;69.00;;;;;;6210605;23;20079;-82
2022/03/23 08:45:17;;;;;;;33.10;24.58;;;11.70;68.00;;;;;;6210475;23;20106;-76
2022/03/23 08:47:43;;;;;;;31.02;24.40;;;11.80;65.10;;;;;;6184645;23;20436;-79
2022/03/23 08:50:11;;;;;;;31.10;23.90;;;11.90;64.40;;;;;;6212073;23;20035;-80
2022/03/23 08:52:38;;;;;;;26.48;22.85;;;12.00;62.60;;;;;;6211839;23;20424;-79
2022/03/23 08:55:19;;;;;;;26.33;22.20;;;12.00;61.50;;;;;;6216476;23;20017;-79
2022/03/23 08:57:45;;;;;;;26.75;22.20;;;12.20;61.10;;;;;;6210958;23;20091;-80
2022/03/23 09:00:14;;;;;;;27.40;21.98;;;12.30;58.70;;;;;;6210598;23;20012;-80
2022/03/23 09:02:39;;;;;;;26.80;22.50;;;12.30;57.70;;;;;;6211694;23;20013;-80
2022/03/23 09:05:09;;;;;;;25.05;22.40;;;12.40;57.80;;;;;;6211015;23;20527;-84
2022/03/23 09:07:37;;;;;;;26.95;21.83;;;12.50;57.80;;;;;;6210449;23;20369;-84
2022/03/23 09:10:03;;;;;;;25.48;22.10;;;12.60;57.10;;;;;;6211039;23;20017;-83
2022/03/23 09:12:41;;;;;;;27.05;22.05;;;12.70;55.80;;;;;;6211156;23;20023;-84
2022/03/23 09:15:09;;;;;;;26.77;21.77;;;12.80;55.50;;;;;;6182702;23;20098;-81
2022/03/23 09:17:35;;;;;;;23.20;20.75;;;12.90;55.90;;;;;;6208823;23;20020;-79
2022/03/23 09:20:01;;;;;;;24.42;20.80;;;12.90;56.00;;;;;;6209081;23;20013;-78
2022/03/23 09:22:28;;;;;;;25.05;20.88;;;13.00;55.90;;;;;;6211223;23;20474;-85
2022/03/23 09:24:54;;;;;;;25.77;22.10;;;13.10;55.30;;;;;;6209913;23;20019;-85
2022/03/23 09:27:28;;;;;;;26.50;21.05;;;13.20;54.60;;;;;;5149472;27;1225857;-84
2022/03/23 09:29:53;;;;;;;26.08;22.38;;;13.30;54.10;;;;;;5186089;27;20046;-84
2022/03/23 09:32:19;;;;;;;24.10;21.52;;;13.30;54.20;;;;;;5190895;27;20102;-83
2022/03/23 09:34:45;;;;;;;24.73;20.90;;;13.40;54.00;;;;;;5167867;27;20077;-83
2022/03/23 09:39:56;;;;;;;25.17;21.17;;;13.60;53.10;;;;;;5149838;27;20130;-84
2022/03/23 09:42:22;;;;;;;24.35;21.13;;;13.60;53.30;;;;;;5150366;27;20129;-84
2022/03/23 09:44:48;;;;;;;24.83;21.13;;;13.70;52.70;;;;;;5169923;27;20053;-84
2022/03/23 09:47:14;;;;;;;25.10;21.17;;;13.80;52.20;;;;;;5150376;27;20042;-84
2022/03/23 09:49:40;;;;;;;26.23;21.52;;;13.90;52.40;;;;;;5171039;27;20058;-85
2022/03/23 09:52:06;;;;;;;24.13;21.27;;;13.90;52.60;;;;;;5168948;27;20035;-85
2022/03/23 09:54:32;;;;;;;23.95;21.35;;;14.00;52.30;;;;;;5147064;27;20046;-84
2022/03/23 09:56:57;;;;;;;26.77;20.92;;;14.10;52.20;;;;;;5135330;27;20036;-84
2022/03/23 09:59:23;;;;;;;23.98;20.80;;;14.10;51.50;;;;;;5155413;27;20117;-85
2022/03/23 10:01:58;;;;;;;23.60;21.08;;;14.20;50.60;;;;;;5141606;27;20038;-81
2022/03/23 10:05:01;;;;;;;24.02;20.55;;;14.20;50.40;;;;;;5180816;27;20042;-83
2022/03/23 10:07:36;;;;;;;22.77;20.27;;;14.40;50.10;;;;;;5177386;27;20439;-82
2022/03/23 10:10:38;;;;;;;22.83;20.35;;;14.40;50.10;;;;;;5162446;27;20054;-83
2022/03/23 10:13:25;;;;;;;23.33;20.65;;;14.50;48.70;;;;;;5179072;27;20087;-83
2022/03/23 10:16:06;;;;;;;;;;;14.60;49.10;;;;;;5147625;27;20047;-79
2022/03/23 10:18:52;;;;;;;29.83;19.88;;;14.70;50.20;;;;;;5130615;27;19927;-81
2022/03/23 10:21:21;;;;;;;26.27;19.05;;;14.60;47.90;;;;;;5166237;27;20042;-81
2022/03/23 10:24:12;;;;;;;21.75;19.35;;;14.70;48.80;;;;;;5166994;27;20086;-81
2022/03/23 10:26:40;;;;;;;21.50;19.20;;;14.80;49.30;;;;;;5121301;27;20396;-81
2022/03/23 10:29:21;;;;;;;22.67;19.08;;;14.80;49.00;;;;;;5169162;27;20038;-81
2022/03/23 10:31:58;;;;;;;23.25;18.83;;;14.90;48.40;;;;;;5167324;27;20038;-81
2022/03/23 10:34:23;;;;;;;21.45;19.15;;;15.10;48.20;;;;;;5161409;27;20090;-81
2022/03/23 10:36:51;;;;;;;22.10;17.98;;;15.10;48.00;;;;;;5164652;27;20039;-79
2022/03/23 10:39:19;;;;;;;23.27;18.30;;;15.20;48.00;;;;;;5152031;27;20038;-80
2022/03/23 10:42:00;;;;;;;25.00;18.33;;;15.20;47.30;;;;;;5138695;27;20038;-80
2022/03/23 10:44:26;;;;;;;19.20;17.02;;;15.30;46.00;;;;;;5154264;27;20071;-81
2022/03/23 10:46:53;;;;;;;22.45;17.50;;;15.30;47.80;;;;;;5136618;27;20132;-81
2022/03/23 10:49:31;;;;;;;19.30;17.25;;;15.40;47.60;;;;;;5149972;27;20046;-77
2022/03/23 10:52:13;;;;;;;20.95;17.55;;;15.40;46.20;;;;;;5135223;27;20046;-78
2022/03/23 10:54:39;;;;;;;20.65;18.45;;;15.50;47.00;;;;;;5135687;27;20043;-77
2022/03/23 10:57:05;;;;;;;20.90;17.23;;;15.60;46.30;;;;;;5136536;27;20496;-78
2022/03/23 10:59:32;;;;;;;19.58;17.35;;;15.60;46.70;;;;;;5139455;27;20297;-77
2022/03/23 11:02:05;;;;;;;21.30;18.42;;;15.70;47.50;;;;;;5135450;27;20108;-77
2022/03/23 11:04:49;;;;;;;22.15;16.98;;;15.80;46.90;;;;;;5132375;27;20031;-77
2022/03/23 11:07:26;;;;;;;20.02;17.75;;;15.80;45.80;;;;;;5172116;27;20498;-75
2022/03/23 11:18:05;;;;;;;20.30;17.65;;;16.00;46.50;;;;;;5142727;27;20373;-78
2022/03/23 11:20:43;;;;;;;21.98;17.85;;;16.10;45.50;;;;;;5151749;27;20064;-76
2022/03/23 11:23:30;;;;;;;20.25;17.40;;;16.20;45.30;;;;;;5137181;27;20046;-79
2022/03/23 11:26:14;;;;;;;22.25;18.40;;;16.20;45.90;;;;;;5168772;27;20065;-79
2022/03/23 11:28:42;;;;;;;21.15;17.77;;;16.30;44.90;;;;;;5140804;27;20046;-79
2022/03/23 11:31:10;;;;;;;21.83;17.63;;;16.30;44.20;;;;;;5125144;27;20657;-78
2022/03/23 11:33:37;;;;;;;21.80;18.00;;;16.30;44.30;;;;;;5149713;27;20049;-83
2022/03/23 11:36:09;;;;;;;22.20;17.95;;;16.40;44.70;;;;;;5148284;27;20254;-84
2022/03/23 11:38:37;;;;;;;22.05;17.55;;;16.40;43.20;;;;;;5148500;27;20026;-84
2022/03/23 11:41:03;;;;;;;22.17;18.13;;;16.50;42.90;;;;;;5131613;27;20107;-84
2022/03/23 11:43:34;;;;;;;21.23;17.43;;;16.50;42.00;;;;;;5144564;27;20041;-81
2022/03/23 11:46:01;;;;;;;20.70;17.75;;;16.50;41.40;;;;;;5161340;27;20074;-84
2022/03/23 11:48:59;;;;;;;22.05;17.33;;;16.50;41.30;;;;;;5151845;27;20045;-84
2022/03/23 11:51:51;;;;;;;21.67;17.23;;;16.60;42.20;;;;;;5134919;27;20476;-84
2022/03/23 11:57:25;;;;;;;25.08;17.67;;;16.70;42.60;;;;;;5154211;27;20038;-84
2022/03/23 11:59:51;;;;;;;21.02;17.63;;;16.80;43.30;;;;;;5152508;27;20477;-84
2022/03/23 12:02:18;;;;;;;18.90;16.73;;;16.80;42.70;;;;;;5134248;27;20106;-85
2022/03/23 12:04:44;;;;;;;21.63;18.08;;;16.90;41.70;;;;;;5165489;27;20053;-85
2022/03/23 12:07:13;;;;;;;21.70;16.83;;;16.90;41.50;;;;;;5173925;27;20042;-84
2022/03/23 12:09:44;;;;;;;19.90;16.25;;;17.00;41.80;;;;;;5161452;27;20053;-84
2022/03/23 12:12:33;;;;;;;21.00;15.32;;;17.00;41.80;;;;;;5134439;27;20053;-84
2022/03/23 12:15:17;;;;;;;19.83;14.50;;;17.10;41.10;;;;;;5148762;27;20073;-84
2022/03/23 12:17:58;;;;;;;18.95;15.40;;;17.20;40.20;;;;;;5173124;27;20050;-84
2022/03/23 12:20:40;;;;;;;16.95;13.45;;;17.20;40.00;;;;;;5154895;27;20042;-84
2022/03/23 12:23:15;;;;;;;21.48;13.70;;;17.20;40.50;;;;;;5153903;27;20132;-85
2022/03/23 12:26:10;;;;;;;20.60;13.93;;;17.20;40.40;;;;;;5112813;27;20069;-84
2022/03/23 12:28:40;;;;;;;20.83;13.75;;;17.30;40.00;;;;;;5141170;27;20354;-84
2022/03/23 12:31:10;;;;;;;20.38;13.85;;;17.40;39.60;;;;;;5172079;27;20113;-84
2022/03/23 12:34:04;;;;;;;22.15;14.30;;;17.40;39.40;;;;;;5159290;27;20091;-84
2022/03/23 12:39:26;;;;;;;29.35;13.93;;;17.40;39.50;;;;;;5134609;27;20055;-84
2022/03/23 12:41:52;;;;;;;19.52;14.07;;;17.40;39.70;;;;;;5152008;27;20061;-84
2022/03/23 12:44:30;;;;;;;22.77;14.10;;;17.50;39.70;;;;;;5152977;27;20039;-84
2022/03/23 12:47:03;;;;;;;22.08;13.63;;;17.50;38.70;;;;;;5132720;27;20072;-84
2022/03/23 12:58:17;;;;;;;22.35;13.57;;;17.60;39.40;;;;;;5152057;27;20042;-84
2022/03/23 13:00:54;;;;;;;21.92;13.70;;;17.70;39.20;;;;;;5133111;27;20042;-84
2022/03/23 13:03:20;;;;;;;22.38;14.25;;;17.80;38.30;;;;;;5164296;27;20042;-85
2022/03/23 13:05:55;;;;;;;22.75;13.43;;;17.60;38.70;;;;;;5152821;27;20430;-84
2022/03/23 13:08:30;;;;;;;18.13;12.60;;;17.70;39.60;;;;;;5154434;27;20061;-85
2022/03/23 13:11:00;;;;;;;20.88;12.98;;;17.80;39.80;;;;;;5172161;27;20049;-84
2022/03/23 13:13:32;;;;;;;21.42;12.50;;;17.80;39.00;;;;;;5141744;27;20172;-84
2022/03/23 13:15:59;;;;;;;20.15;12.77;;;17.90;38.80;;;;;;5151002;27;20042;-84